Time;durP1;ratioP1;P1;durP2;ratioP2;P2;SDS_P1;SDS_P2;PMS_P1;PMS_P2;Temp;Humidity;BMP_temperature;BMP_pressure;BME280_temperature;BME280_humidity;BME280_pressure;Samples;Min_cycle;Max_cycle;Signal;HPM_P1;HPM_P2
2022/06/15 00:01:20;;;;;;;;;;;26.80;96.20;;;;;;5007685;28;20305;-50
2022/06/15 00:03:46;;;;;;;;;;;26.80;96.20;;;;;;5007490;28;20102;-52
2022/06/15 00:06:14;;;;;;;;;;;26.80;96.20;;;;;;5007749;28;19910;-50
2022/06/15 00:08:41;;;;;;;;;;;26.80;96.00;;;;;;5007580;28;19917;-45
2022/06/15 00:11:09;;;;;;;;;;;26.70;96.00;;;;;;5007938;28;19916;-50
2022/06/15 00:13:35;;;;;;;;;;;26.60;96.20;;;;;;5007143;28;19910;-47
2022/06/15 00:16:03;;;;;;;;;;;26.60;96.10;;;;;;5008202;28;19949;-49
2022/06/15 00:18:30;;;;;;;;;;;26.60;96.00;;;;;;5007490;28;19906;-46
2022/06/15 00:20:57;;;;;;;;;;;26.50;95.90;;;;;;5007493;28;19910;-47
2022/06/15 00:23:24;;;;;;;;;;;26.50;95.90;;;;;;5007159;28;19948;-47
2022/06/15 00:25:50;;;;;;;;;;;26.50;95.80;;;;;;5007366;28;20210;-49
2022/06/15 00:28:17;;;;;;;;;;;26.50;95.80;;;;;;5006421;28;19906;-46
2022/06/15 00:30:45;;;;;;;;;;;26.50;95.60;;;;;;5006652;28;20194;-48
2022/06/15 00:33:11;;;;;;;;;;;26.60;95.60;;;;;;5005383;28;20214;-49
2022/06/15 00:35:37;;;;;;;;;;;26.50;95.80;;;;;;5006560;28;19906;-54
2022/06/15 00:38:04;;;;;;;;;;;26.40;95.70;;;;;;5007125;28;19968;-46
2022/06/15 00:40:30;;;;;;;;;;;26.40;95.90;;;;;;5006576;28;19909;-45
2022/06/15 00:42:56;;;;;;;;;;;26.40;96.00;;;;;;5006285;28;19906;-45
2022/06/15 00:45:22;;;;;;;;;;;26.40;96.00;;;;;;5006355;28;20071;-45
2022/06/15 00:47:48;;;;;;;;;;;26.40;96.00;;;;;;5005023;28;20136;-45
2022/06/15 00:50:19;;;;;;;;;;;26.40;96.00;;;;;;5007025;28;19910;-46
2022/06/15 00:52:52;;;;;;;;;;;26.40;95.90;;;;;;5006521;28;19913;-43
2022/06/15 00:55:20;;;;;;;;;;;26.40;95.90;;;;;;5006961;28;20245;-49
2022/06/15 00:57:46;;;;;;;;;;;26.40;95.90;;;;;;5006370;28;19910;-46
2022/06/15 01:00:13;;;;;;;;;;;26.40;95.90;;;;;;5005256;28;19906;-50
2022/06/15 01:02:40;;;;;;;;;;;26.40;96.00;;;;;;5006284;28;19910;-45
2022/06/15 01:05:17;;;;;;;;;;;26.40;96.00;;;;;;5006234;28;19920;-43
2022/06/15 01:07:46;;;;;;;;;;;26.30;95.90;;;;;;5006383;28;19953;-47
2022/06/15 01:10:39;;;;;;;;;;;26.30;96.10;;;;;;5006388;28;19906;-44
2022/06/15 01:13:18;;;;;;;;;;;26.30;96.00;;;;;;5005999;28;19913;-44
2022/06/15 01:15:55;;;;;;;;;;;26.30;95.90;;;;;;5005404;28;19909;-45
2022/06/15 01:18:27;;;;;;;;;;;26.30;96.00;;;;;;5005664;28;19906;-48
2022/06/15 01:20:53;;;;;;;;;;;26.20;95.80;;;;;;5000560;28;19969;-50
2022/06/15 01:23:26;;;;;;;;;;;26.20;95.90;;;;;;4995461;28;20004;-47
2022/06/15 01:25:58;;;;;;;;;;;26.20;95.90;;;;;;4998011;28;19969;-43
2022/06/15 01:28:25;;;;;;;;;;;26.20;95.70;;;;;;5004593;28;19933;-48
2022/06/15 01:31:04;;;;;;;;;;;26.20;95.60;;;;;;4992531;28;20253;-46
2022/06/15 01:33:45;;;;;;;;;;;26.10;95.60;;;;;;4992808;28;20185;-47
2022/06/15 01:36:20;;;;;;;;;;;26.10;95.50;;;;;;4999931;28;19918;-46
2022/06/15 01:39:07;;;;;;;;;;;26.10;95.50;;;;;;5004922;28;19999;-45
2022/06/15 01:41:39;;;;;;;;;;;26.10;95.50;;;;;;5003599;28;19914;-48
2022/06/15 01:44:08;;;;;;;;;;;26.10;95.60;;;;;;5002236;28;19945;-45
2022/06/15 01:46:36;;;;;;;;;;;26.10;95.50;;;;;;5002718;28;19916;-48
2022/06/15 01:49:03;;;;;;;;;;;26.10;95.50;;;;;;4998405;28;20186;-50
2022/06/15 01:51:32;;;;;;;;;;;26.10;95.40;;;;;;5000933;28;20110;-49
2022/06/15 01:54:04;;;;;;;;;;;26.10;95.40;;;;;;4999073;28;19973;-46
2022/06/15 01:56:33;;;;;;;;;;;26.10;95.50;;;;;;4985614;28;19910;-49
2022/06/15 01:59:01;;;;;;;;;;;26.10;95.50;;;;;;4991991;28;19976;-46
2022/06/15 02:01:38;;;;;;;;;;;26.00;95.40;;;;;;5005406;28;19992;-45
2022/06/15 02:04:24;;;;;;;;;;;26.00;95.50;;;;;;5005114;28;19908;-45
2022/06/15 02:06:50;;;;;;;;;;;26.00;95.40;;;;;;5003761;28;19906;-48
2022/06/15 02:09:21;;;;;;;;;;;26.00;95.60;;;;;;5002941;28;20178;-46
2022/06/15 02:11:47;;;;;;;;;;;26.00;95.50;;;;;;5002371;28;25130;-50
2022/06/15 02:14:19;;;;;;;;;;;26.00;95.60;;;;;;4997334;28;25085;-48
2022/06/15 02:16:45;;;;;;;;;;;26.00;95.60;;;;;;5000799;28;19914;-48
2022/06/15 02:19:14;;;;;;;;;;;26.10;95.40;;;;;;5003895;28;20142;-46
2022/06/15 02:21:41;;;;;;;;;;;26.10;95.30;;;;;;4998994;28;20262;-53
2022/06/15 02:24:09;;;;;;;;;;;26.10;95.20;;;;;;5001925;28;19905;-51
2022/06/15 02:26:37;;;;;;;;;;;26.20;95.20;;;;;;5003807;28;20138;-51
2022/06/15 02:29:13;;;;;;;;;;;26.20;95.10;;;;;;5002381;28;19960;-56
2022/06/15 02:31:40;;;;;;;;;;;26.20;95.00;;;;;;5003163;28;20229;-46
2022/06/15 02:34:07;;;;;;;;;;;26.30;95.10;;;;;;5003009;28;19906;-50
2022/06/15 02:36:34;;;;;;;;;;;26.30;94.90;;;;;;4991993;28;19918;-50
2022/06/15 02:39:04;;;;;;;;;;;26.30;94.90;;;;;;4998573;28;19909;-55
2022/06/15 02:41:30;;;;;;;;;;;26.30;95.10;;;;;;4985237;28;20083;-47
2022/06/15 02:43:57;;;;;;;;;;;26.30;94.90;;;;;;4990948;28;19911;-52
2022/06/15 02:46:24;;;;;;;;;;;26.30;94.80;;;;;;5001166;28;19922;-47
2022/06/15 02:48:51;;;;;;;;;;;26.30;94.70;;;;;;5004433;28;19933;-58
2022/06/15 02:51:18;;;;;;;;;;;26.30;94.70;;;;;;5004360;28;19912;-52
2022/06/15 02:53:45;;;;;;;;;;;26.30;94.70;;;;;;5004411;28;20193;-49
2022/06/15 02:56:12;;;;;;;;;;;26.30;94.60;;;;;;5004236;28;20237;-52
2022/06/15 02:58:40;;;;;;;;;;;26.30;94.60;;;;;;5003125;28;19909;-52
2022/06/15 03:01:07;;;;;;;;;;;26.30;94.50;;;;;;5004309;28;19910;-47
2022/06/15 03:03:33;;;;;;;;;;;26.30;94.50;;;;;;5004415;28;19906;-51
2022/06/15 03:05:59;;;;;;;;;;;26.30;94.50;;;;;;5004446;28;20078;-53
2022/06/15 03:08:25;;;;;;;;;;;26.30;94.50;;;;;;5004279;28;19910;-49
2022/06/15 03:10:52;;;;;;;;;;;26.20;94.50;;;;;;5001096;28;20220;-44
2022/06/15 03:13:19;;;;;;;;;;;26.30;94.40;;;;;;5001456;28;19916;-45
2022/06/15 03:15:45;;;;;;;;;;;26.30;94.40;;;;;;4988793;28;19929;-49
2022/06/15 03:18:12;;;;;;;;;;;26.20;94.30;;;;;;4991791;28;19921;-54
2022/06/15 03:20:38;;;;;;;;;;;26.20;94.30;;;;;;5004709;28;19913;-50
2022/06/15 03:23:06;;;;;;;;;;;26.20;94.30;;;;;;4996375;28;19906;-49
2022/06/15 03:25:33;;;;;;;;;;;26.20;94.40;;;;;;4985200;28;19929;-50
2022/06/15 03:27:59;;;;;;;;;;;26.20;94.40;;;;;;4988408;28;19913;-52
2022/06/15 03:30:26;;;;;;;;;;;26.20;94.50;;;;;;5004731;28;19913;-50
2022/06/15 03:32:52;;;;;;;;;;;26.20;94.40;;;;;;5008206;28;19905;-49
2022/06/15 03:35:18;;;;;;;;;;;26.20;94.30;;;;;;5008477;28;19937;-48
2022/06/15 03:37:45;;;;;;;;;;;26.20;94.30;;;;;;5008095;28;19906;-50
2022/06/15 03:40:11;;;;;;;;;;;26.20;94.40;;;;;;5008448;28;19913;-49
2022/06/15 03:42:40;;;;;;;;;;;26.20;94.40;;;;;;5007638;28;19925;-51
2022/06/15 03:45:07;;;;;;;;;;;26.20;94.40;;;;;;5000694;28;19905;-49
2022/06/15 03:47:33;;;;;;;;;;;26.20;94.40;;;;;;4988511;28;19973;-50
2022/06/15 03:49:59;;;;;;;;;;;26.20;94.40;;;;;;4988387;28;19906;-53
2022/06/15 03:52:26;;;;;;;;;;;26.20;94.40;;;;;;4988363;28;19929;-52
2022/06/15 03:54:53;;;;;;;;;;;26.20;94.40;;;;;;4995854;28;20192;-50
2022/06/15 03:57:19;;;;;;;;;;;26.20;94.40;;;;;;5007081;28;19913;-47
2022/06/15 03:59:46;;;;;;;;;;;26.20;94.40;;;;;;5007468;28;19940;-47
2022/06/15 04:02:12;;;;;;;;;;;26.20;94.40;;;;;;5005735;28;19921;-50
2022/06/15 04:04:38;;;;;;;;;;;26.20;94.50;;;;;;5007935;28;19912;-52
2022/06/15 04:08:34;;;;;;;;;;;26.20;94.50;;;;;;5003731;28;20201;-46
2022/06/15 04:09:53;;;;;;;;;;;26.20;94.50;;;;;;4998354;28;19940;-51
2022/06/15 04:12:19;;;;;;;;;;;26.20;94.50;;;;;;5007700;28;19944;-49
2022/06/15 04:14:45;;;;;;;;;;;26.20;94.60;;;;;;5007589;28;19906;-54
2022/06/15 04:17:12;;;;;;;;;;;26.20;94.60;;;;;;5007435;28;19914;-53
2022/06/15 04:19:38;;;;;;;;;;;26.20;94.60;;;;;;5007633;28;19929;-51
2022/06/15 04:22:04;;;;;;;;;;;26.20;94.70;;;;;;5007276;28;19910;-49
2022/06/15 04:24:30;;;;;;;;;;;26.20;94.70;;;;;;5007386;28;19930;-46
2022/06/15 04:26:56;;;;;;;;;;;26.10;94.70;;;;;;5007418;28;19940;-50
2022/06/15 04:29:23;;;;;;;;;;;26.10;94.70;;;;;;5007221;28;19976;-49
2022/06/15 04:31:49;;;;;;;;;;;26.10;94.70;;;;;;5007149;28;19973;-45
2022/06/15 04:34:16;;;;;;;;;;;26.10;94.70;;;;;;5007208;28;19905;-49
2022/06/15 04:36:44;;;;;;;;;;;26.10;94.80;;;;;;5005868;28;19906;-47
2022/06/15 04:39:11;;;;;;;;;;;26.10;94.80;;;;;;5006099;28;20145;-47
2022/06/15 04:41:39;;;;;;;;;;;26.20;94.80;;;;;;5007069;28;19941;-47
2022/06/15 04:44:06;;;;;;;;;;;26.20;94.80;;;;;;5006479;28;20106;-47
2022/06/15 04:46:32;;;;;;;;;;;26.20;94.80;;;;;;5006539;28;19965;-45
2022/06/15 04:48:58;;;;;;;;;;;26.20;94.80;;;;;;5006096;28;24056;-50
2022/06/15 04:51:25;;;;;;;;;;;26.20;94.80;;;;;;5006776;28;20130;-45
2022/06/15 04:53:53;;;;;;;;;;;26.20;94.80;;;;;;5006954;28;20178;-56
2022/06/15 04:56:19;;;;;;;;;;;26.20;94.80;;;;;;5007438;28;19906;-53
2022/06/15 04:58:46;;;;;;;;;;;26.20;94.80;;;;;;5006654;28;19973;-52
2022/06/15 05:01:13;;;;;;;;;;;26.20;94.80;;;;;;5007148;28;19917;-54
2022/06/15 05:03:40;;;;;;;;;;;26.20;94.80;;;;;;5006093;28;20217;-51
2022/06/15 05:06:11;;;;;;;;;;;26.20;94.80;;;;;;5006526;28;20327;-56
2022/06/15 05:08:37;;;;;;;;;;;26.20;94.90;;;;;;5006781;28;19981;-49
2022/06/15 05:11:03;;;;;;;;;;;26.10;94.90;;;;;;5007084;28;20094;-46
2022/06/15 05:13:30;;;;;;;;;;;26.10;94.90;;;;;;5006352;28;20190;-50
2022/06/15 05:15:56;;;;;;;;;;;26.10;94.90;;;;;;5006924;28;20093;-50
2022/06/15 05:18:22;;;;;;;;;;;26.10;95.00;;;;;;5006233;28;20190;-50
2022/06/15 05:20:48;;;;;;;;;;;26.10;95.00;;;;;;5006393;28;24101;-44
2022/06/15 05:23:15;;;;;;;;;;;26.10;95.00;;;;;;5006203;28;20194;-46
2022/06/15 05:25:42;;;;;;;;;;;26.10;95.00;;;;;;5005786;28;19928;-45
2022/06/15 05:28:09;;;;;;;;;;;26.10;95.00;;;;;;5006196;28;20075;-49
2022/06/15 05:30:35;;;;;;;;;;;26.10;95.00;;;;;;5006145;28;20186;-52
2022/06/15 05:33:02;;;;;;;;;;;26.10;95.00;;;;;;5006152;28;20130;-56
2022/06/15 05:35:29;;;;;;;;;;;26.10;95.00;;;;;;5006425;28;19952;-52
2022/06/15 05:37:55;;;;;;;;;;;26.10;95.00;;;;;;5005917;28;19913;-50
2022/06/15 05:40:21;;;;;;;;;;;26.10;95.00;;;;;;5006227;28;19906;-56
2022/06/15 05:42:47;;;;;;;;;;;26.10;95.00;;;;;;5005229;28;19932;-52
2022/06/15 05:45:14;;;;;;;;;;;26.10;95.00;;;;;;5005134;28;19929;-51
2022/06/15 05:47:40;;;;;;;;;;;26.10;95.00;;;;;;5005857;28;19905;-48
2022/06/15 05:50:07;;;;;;;;;;;26.10;95.00;;;;;;5005803;28;20221;-49
2022/06/15 05:52:33;;;;;;;;;;;26.10;95.00;;;;;;5005495;28;20213;-47
2022/06/15 05:55:01;;;;;;;;;;;26.10;95.00;;;;;;5005825;28;19941;-50
2022/06/15 05:57:27;;;;;;;;;;;26.00;95.00;;;;;;5005390;28;24104;-50
2022/06/15 05:59:57;;;;;;;;;;;26.10;95.10;;;;;;5005415;28;19964;-50
2022/06/15 06:02:24;;;;;;;;;;;26.10;95.10;;;;;;5005422;28;20005;-48
2022/06/15 06:04:51;;;;;;;;;;;26.00;95.00;;;;;;5005365;28;19906;-50
2022/06/15 06:07:20;;;;;;;;;;;26.00;95.10;;;;;;5005022;28;19913;-50
2022/06/15 06:09:47;;;;;;;;;;;26.00;95.10;;;;;;4996380;28;19913;-45
2022/06/15 06:12:13;;;;;;;;;;;26.00;95.20;;;;;;4985879;28;20210;-47
2022/06/15 06:14:40;;;;;;;;;;;26.00;95.20;;;;;;4985636;28;19906;-50
2022/06/15 06:17:07;;;;;;;;;;;26.00;95.20;;;;;;4985315;28;19906;-48
2022/06/15 06:19:33;;;;;;;;;;;26.00;95.20;;;;;;4985255;28;19913;-52
2022/06/15 06:21:59;;;;;;;;;;;26.00;95.30;;;;;;4985183;28;19910;-51
2022/06/15 06:24:26;;;;;;;;;;;26.00;95.30;;;;;;4985659;28;19953;-47
2022/06/15 06:26:59;;;;;;;;;;;26.00;95.30;;;;;;4985304;28;19910;-54
2022/06/15 06:29:26;;;;;;;;;;;26.00;95.30;;;;;;4985253;28;19913;-45
2022/06/15 06:31:52;;;;;;;;;;;26.00;95.40;;;;;;4985246;28;19918;-52
2022/06/15 06:34:18;;;;;;;;;;;26.00;95.40;;;;;;4985267;28;24065;-46
2022/06/15 06:36:45;;;;;;;;;;;26.00;95.40;;;;;;4984917;28;24087;-47
2022/06/15 06:39:16;;;;;;;;;;;26.00;95.40;;;;;;4984961;28;24137;-51
2022/06/15 06:41:43;;;;;;;;;;;26.00;95.40;;;;;;4985000;28;19910;-49
2022/06/15 06:44:10;;;;;;;;;;;26.00;95.40;;;;;;4985128;28;20238;-54
2022/06/15 06:46:36;;;;;;;;;;;26.00;95.40;;;;;;4985256;28;20142;-47
2022/06/15 06:49:05;;;;;;;;;;;25.90;95.40;;;;;;4985313;28;19902;-58
2022/06/15 06:51:31;;;;;;;;;;;25.90;95.40;;;;;;4985234;28;19938;-51
2022/06/15 06:53:57;;;;;;;;;;;25.90;95.40;;;;;;4985360;28;19909;-53
2022/06/15 06:56:23;;;;;;;;;;;25.90;95.40;;;;;;4984913;28;19906;-49
2022/06/15 06:58:49;;;;;;;;;;;25.90;95.30;;;;;;4984713;28;19902;-49
2022/06/15 07:01:15;;;;;;;;;;;25.90;95.30;;;;;;4986079;28;19917;-51
2022/06/15 07:03:41;;;;;;;;;;;25.90;95.20;;;;;;4989342;28;19920;-46
2022/06/15 07:06:08;;;;;;;;;;;25.90;95.20;;;;;;4988466;28;19941;-44
2022/06/15 07:08:37;;;;;;;;;;;25.90;95.20;;;;;;4988635;28;19937;-46
2022/06/15 07:11:10;;;;;;;;;;;25.90;95.20;;;;;;4989486;28;19913;-51
2022/06/15 07:13:37;;;;;;;;;;;25.90;95.20;;;;;;4988722;28;20194;-48
2022/06/15 07:16:04;;;;;;;;;;;25.90;95.20;;;;;;4989291;28;19913;-50
2022/06/15 07:18:30;;;;;;;;;;;25.90;95.20;;;;;;4989212;28;19906;-51
2022/06/15 07:21:00;;;;;;;;;;;25.90;95.20;;;;;;4988453;28;24072;-53
2022/06/15 07:23:26;;;;;;;;;;;25.90;95.10;;;;;;4988377;28;19910;-51
2022/06/15 07:25:52;;;;;;;;;;;25.90;95.10;;;;;;4988907;28;19906;-46
2022/06/15 07:28:19;;;;;;;;;;;25.80;95.10;;;;;;4988596;28;19912;-51
2022/06/15 07:30:45;;;;;;;;;;;25.80;95.10;;;;;;4988756;28;19914;-47
2022/06/15 07:33:11;;;;;;;;;;;25.80;95.10;;;;;;4989060;28;20134;-49
2022/06/15 07:35:38;;;;;;;;;;;25.80;95.10;;;;;;4988576;28;19906;-54
2022/06/15 07:38:05;;;;;;;;;;;25.80;95.10;;;;;;4987850;28;19906;-50
2022/06/15 07:40:31;;;;;;;;;;;25.80;95.10;;;;;;4988357;28;19902;-46
2022/06/15 07:42:57;;;;;;;;;;;25.80;95.00;;;;;;4988500;28;19910;-54
2022/06/15 07:45:24;;;;;;;;;;;25.80;95.00;;;;;;4988905;28;19909;-54
2022/06/15 07:50:36;;;;;;;;;;;25.70;95.00;;;;;;4988001;28;19941;-47
2022/06/15 07:53:04;;;;;;;;;;;25.70;95.00;;;;;;4988269;28;19910;-46
2022/06/15 07:55:32;;;;;;;;;;;25.70;94.90;;;;;;4988765;28;19902;-55
2022/06/15 07:57:58;;;;;;;;;;;25.70;94.90;;;;;;4988510;28;20202;-46
2022/06/15 08:00:24;;;;;;;;;;;25.70;94.90;;;;;;4988704;28;19902;-54
2022/06/15 08:02:51;;;;;;;;;;;25.70;94.90;;;;;;4988423;28;19921;-50
2022/06/15 08:05:18;;;;;;;;;;;25.70;94.80;;;;;;4988530;28;19937;-58
2022/06/15 08:07:45;;;;;;;;;;;25.70;94.80;;;;;;4988375;28;19910;-48
2022/06/15 08:10:13;;;;;;;;;;;25.70;94.80;;;;;;4988823;28;19901;-56
2022/06/15 08:12:40;;;;;;;;;;;25.60;94.80;;;;;;4988247;28;19941;-57
2022/06/15 08:15:06;;;;;;;;;;;25.70;94.80;;;;;;4988517;28;19902;-47
2022/06/15 08:17:37;;;;;;;;;;;25.60;94.70;;;;;;4988250;28;19953;-54
2022/06/15 08:20:22;;;;;;;;;;;25.60;95.00;;;;;;4988099;28;19902;-49
2022/06/15 08:22:50;;;;;;;;;;;25.60;94.80;;;;;;4988147;28;19918;-49
2022/06/15 08:25:18;;;;;;;;;;;25.60;94.80;;;;;;4988198;28;19908;-48
2022/06/15 08:27:45;;;;;;;;;;;25.60;94.80;;;;;;4988016;28;19941;-50
2022/06/15 08:30:11;;;;;;;;;;;25.60;94.70;;;;;;4987833;28;19980;-51
2022/06/15 08:32:38;;;;;;;;;;;25.60;94.70;;;;;;4987698;28;19914;-52
2022/06/15 08:35:05;;;;;;;;;;;25.50;94.70;;;;;;4987965;28;19906;-52
2022/06/15 08:37:32;;;;;;;;;;;25.50;94.70;;;;;;4987796;28;19906;-53
2022/06/15 08:39:58;;;;;;;;;;;25.50;94.70;;;;;;4987496;28;19933;-46
2022/06/15 08:42:44;;;;;;;;;;;25.50;94.60;;;;;;4987535;28;20257;-52
2022/06/15 08:45:21;;;;;;;;;;;25.50;94.60;;;;;;4980652;28;19974;-49
2022/06/15 08:48:05;;;;;;;;;;;25.50;94.60;;;;;;4987667;28;20075;-46
2022/06/15 08:50:47;;;;;;;;;;;25.50;94.60;;;;;;4987522;28;19930;-46
2022/06/15 08:53:24;;;;;;;;;;;25.50;94.60;;;;;;4987590;28;20093;-46
2022/06/15 08:56:08;;;;;;;;;;;25.50;94.60;;;;;;4987874;28;19902;-47
2022/06/15 08:58:40;;;;;;;;;;;25.50;94.60;;;;;;4987269;28;19945;-47
2022/06/15 09:01:15;;;;;;;;;;;25.50;94.60;;;;;;4987686;28;20075;-46
2022/06/15 09:04:02;;;;;;;;;;;25.50;94.60;;;;;;4987309;28;19977;-45
2022/06/15 09:06:31;;;;;;;;;;;25.50;94.70;;;;;;4986920;28;19917;-50
2022/06/15 09:09:30;;;;;;;;;;;25.40;94.60;;;;;;4986658;28;19902;-48
2022/06/15 09:15:12;;;;;;;;;;;25.50;94.70;;;;;;4976811;28;24078;-48
2022/06/15 09:17:39;;;;;;;;;;;25.40;94.70;;;;;;4987267;28;19910;-53
2022/06/15 09:20:05;;;;;;;;;;;25.40;94.70;;;;;;4987096;28;19917;-47
2022/06/15 09:22:34;;;;;;;;;;;25.40;94.70;;;;;;4986784;28;19952;-47
2022/06/15 09:25:09;;;;;;;;;;;25.40;94.70;;;;;;4986461;28;19902;-53
2022/06/15 09:27:47;;;;;;;;;;;25.40;94.70;;;;;;4986966;28;19949;-51
2022/06/15 09:30:21;;;;;;;;;;;25.40;94.80;;;;;;4986785;28;19909;-45
2022/06/15 09:32:51;;;;;;;;;;;25.40;94.80;;;;;;4986714;28;19901;-49
2022/06/15 09:35:27;;;;;;;;;;;25.40;94.80;;;;;;4986359;28;19906;-49
2022/06/15 09:37:55;;;;;;;;;;;25.40;94.90;;;;;;4986419;28;24110;-45
2022/06/15 09:40:26;;;;;;;;;;;25.40;94.90;;;;;;4986565;28;19906;-48
2022/06/15 09:42:55;;;;;;;;;;;25.40;94.90;;;;;;4986413;28;19917;-46
2022/06/15 09:45:38;;;;;;;;;;;25.40;94.90;;;;;;4986779;28;19910;-45
2022/06/15 09:48:08;;;;;;;;;;;25.40;94.90;;;;;;4986423;28;20099;-49
2022/06/15 09:50:37;;;;;;;;;;;25.40;94.90;;;;;;4986583;28;19913;-56
2022/06/15 09:53:06;;;;;;;;;;;25.40;95.00;;;;;;4986247;28;19912;-54
2022/06/15 09:55:36;;;;;;;;;;;25.40;95.00;;;;;;4986536;28;19928;-50
2022/06/15 09:58:03;;;;;;;;;;;25.40;95.00;;;;;;4986275;28;19929;-47
2022/06/15 10:00:30;;;;;;;;;;;25.40;95.10;;;;;;4986593;28;19921;-50
2022/06/15 10:02:58;;;;;;;;;;;25.40;95.10;;;;;;4986294;28;19932;-50
2022/06/15 10:05:30;;;;;;;;;;;25.40;95.10;;;;;;4986136;28;19913;-50
2022/06/15 10:07:57;;;;;;;;;;;25.40;95.20;;;;;;4986333;28;19906;-46
2022/06/15 10:10:27;;;;;;;;;;;25.40;95.20;;;;;;4986315;28;19906;-47
2022/06/15 10:13:03;;;;;;;;;;;25.40;95.20;;;;;;4985633;28;19906;-49
2022/06/15 10:15:35;;;;;;;;;;;25.40;95.30;;;;;;4986002;28;19917;-47
2022/06/15 10:18:22;;;;;;;;;;;25.40;95.30;;;;;;4985739;28;19906;-53
2022/06/15 10:20:58;;;;;;;;;;;25.40;95.30;;;;;;4978458;28;20083;-52
2022/06/15 10:23:31;;;;;;;;;;;25.40;95.40;;;;;;4985405;28;19906;-48
2022/06/15 10:25:57;;;;;;;;;;;25.40;95.40;;;;;;4986029;28;20121;-46
2022/06/15 10:28:25;;;;;;;;;;;25.40;95.40;;;;;;4985124;28;19928;-55
2022/06/15 10:30:53;;;;;;;;;;;25.40;95.50;;;;;;4985327;28;19914;-47
2022/06/15 10:33:20;;;;;;;;;;;25.40;95.50;;;;;;4984820;28;24086;-50
2022/06/15 10:35:59;;;;;;;;;;;25.40;95.50;;;;;;4985081;28;19952;-45
2022/06/15 10:38:27;;;;;;;;;;;25.40;95.60;;;;;;4985288;28;19913;-45
2022/06/15 10:40:54;;;;;;;;;;;25.40;95.60;;;;;;4985770;28;19906;-50
2022/06/15 10:43:32;;;;;;;;;;;25.40;95.60;;;;;;4985505;28;19913;-48
2022/06/15 10:45:59;;;;;;;;;;;25.40;95.60;;;;;;4986009;28;19906;-45
2022/06/15 10:48:44;;;;;;;;;;;25.40;95.60;;;;;;4984648;28;19976;-51
2022/06/15 10:51:10;;;;;;;;;;;25.40;95.60;;;;;;4985581;28;20193;-49
2022/06/15 10:53:48;;;;;;;;;;;25.40;95.60;;;;;;4985363;28;24092;-47
2022/06/15 11:02:09;;;;;;;;;;;25.40;95.70;;;;;;4985091;28;19981;-44
2022/06/15 11:04:37;;;;;;;;;;;25.40;95.70;;;;;;4985088;28;19906;-46
2022/06/15 11:07:04;;;;;;;;;;;25.40;95.70;;;;;;4985022;28;19941;-50
2022/06/15 11:09:32;;;;;;;;;;;25.40;95.80;;;;;;4985050;28;24094;-53
2022/06/15 11:12:01;;;;;;;;;;;25.40;95.80;;;;;;4984853;28;19906;-49
2022/06/15 11:14:53;;;;;;;;;;;25.40;95.80;;;;;;4984889;28;20090;-53
2022/06/15 11:20:07;;;;;;;;;;;25.40;95.90;;;;;;4984972;28;19921;-52
2022/06/15 11:22:34;;;;;;;;;;;25.40;95.90;;;;;;4984825;28;19910;-50
2022/06/15 11:25:20;;;;;;;;;;;25.40;95.90;;;;;;4984684;28;19972;-52
2022/06/15 11:27:52;;;;;;;;;;;25.40;95.90;;;;;;4984788;28;19913;-50
2022/06/15 11:30:27;;;;;;;;;;;25.40;95.90;;;;;;4984880;28;19910;-51
2022/06/15 11:33:22;;;;;;;;;;;25.50;96.00;;;;;;4984941;28;19906;-47
2022/06/15 11:35:57;;;;;;;;;;;25.50;95.90;;;;;;4985605;28;19910;-51
2022/06/15 11:38:43;;;;;;;;;;;25.40;95.90;;;;;;4985126;28;19906;-50
2022/06/15 11:41:28;;;;;;;;;;;25.50;95.90;;;;;;4985193;28;19917;-53
2022/06/15 11:43:55;;;;;;;;;;;25.50;95.90;;;;;;4984657;28;19929;-49
2022/06/15 11:46:30;;;;;;;;;;;25.50;95.90;;;;;;4984733;28;19954;-54
2022/06/15 11:49:19;;;;;;;;;;;25.50;95.90;;;;;;4986955;28;19997;-52
2022/06/15 11:52:10;;;;;;;;;;;25.50;95.90;;;;;;4986710;28;19913;-50
2022/06/15 11:54:42;;;;;;;;;;;25.50;95.90;;;;;;4986692;28;20128;-51
2022/06/15 11:57:34;;;;;;;;;;;25.50;95.90;;;;;;4986603;28;19977;-49
2022/06/15 12:00:19;;;;;;;;;;;25.50;95.90;;;;;;4984349;28;19906;-48
2022/06/15 12:02:57;;;;;;;;;;;25.50;95.90;;;;;;4987830;28;19996;-51
2022/06/15 12:05:23;;;;;;;;;;;25.50;95.90;;;;;;5007074;28;19913;-51
2022/06/15 12:08:18;;;;;;;;;;;25.50;95.90;;;;;;5007703;28;19905;-49
2022/06/15 12:10:56;;;;;;;;;;;25.50;95.80;;;;;;5007778;28;20125;-50
2022/06/15 12:13:40;;;;;;;;;;;25.50;95.90;;;;;;5007582;28;19989;-49
2022/06/15 12:16:07;;;;;;;;;;;25.50;95.80;;;;;;5008239;28;20174;-46
2022/06/15 12:18:42;;;;;;;;;;;25.50;95.80;;;;;;5007596;28;19910;-54
2022/06/15 12:21:23;;;;;;;;;;;25.50;95.70;;;;;;5008089;28;19909;-47
2022/06/15 12:24:15;;;;;;;;;;;25.50;95.80;;;;;;5007418;28;19905;-54
2022/06/15 12:26:50;;;;;;;;;;;25.50;95.70;;;;;;5005451;28;19910;-51
2022/06/15 12:29:20;;;;;;;;;;;25.50;95.70;;;;;;5006531;28;25138;-49
2022/06/15 12:31:52;;;;;;;;;;;25.50;95.60;;;;;;5006723;28;19984;-52
2022/06/15 12:34:21;;;;;;;;;;;25.50;95.50;;;;;;5006947;28;20145;-49
2022/06/15 12:36:59;;;;;;;;;;;25.50;95.60;;;;;;5006776;28;24121;-51
2022/06/15 12:39:48;;;;;;;;;;;25.50;95.60;;;;;;5006266;28;19905;-45
2022/06/15 12:42:17;;;;;;;;;;;25.50;95.50;;;;;;4979241;28;19921;-51
2022/06/15 12:44:51;;;;;;;;;;;25.50;95.50;;;;;;4987320;28;19902;-51
2022/06/15 12:47:19;;;;;;;;;;;25.50;95.50;;;;;;4987002;28;19910;-48
2022/06/15 12:49:56;;;;;;;;;;;25.50;95.60;;;;;;4987379;28;19902;-48
2022/06/15 12:52:43;;;;;;;;;;;25.50;95.50;;;;;;4987300;28;20056;-45
2022/06/15 12:55:16;;;;;;;;;;;25.50;95.60;;;;;;4987251;28;20063;-46
2022/06/15 12:57:56;;;;;;;;;;;25.50;95.60;;;;;;4986727;28;20113;-47
2022/06/15 13:00:31;;;;;;;;;;;25.50;95.70;;;;;;4986358;28;19964;-46
2022/06/15 13:03:02;;;;;;;;;;;25.50;95.70;;;;;;4986365;28;20114;-51
2022/06/15 13:05:31;;;;;;;;;;;25.50;95.70;;;;;;4986725;28;19910;-50
2022/06/15 13:08:26;;;;;;;;;;;25.60;95.70;;;;;;4986624;28;19910;-48
2022/06/15 13:10:55;;;;;;;;;;;25.60;95.70;;;;;;4984890;28;19909;-50
2022/06/15 13:13:36;;;;;;;;;;;25.60;95.70;;;;;;4986880;28;19910;-50
2022/06/15 13:16:08;;;;;;;;;;;25.60;95.80;;;;;;4987239;28;19961;-48
2022/06/15 13:18:48;;;;;;;;;;;25.60;95.80;;;;;;4987047;28;19914;-53
2022/06/15 13:21:24;;;;;;;;;;;25.70;95.80;;;;;;4988548;28;19910;-47
2022/06/15 13:24:05;;;;;;;;;;;25.60;95.90;;;;;;4986623;28;20098;-49
2022/06/15 13:26:41;;;;;;;;;;;25.70;96.00;;;;;;4986782;28;20197;-57
2022/06/15 13:29:10;;;;;;;;;;;25.60;96.00;;;;;;4986681;28;19940;-49
2022/06/15 13:31:42;;;;;;;;;;;25.70;96.10;;;;;;5001247;28;19925;-49
2022/06/15 13:34:10;;;;;;;;;;;25.70;96.10;;;;;;5005196;28;19976;-50
2022/06/15 13:36:37;;;;;;;;;;;25.70;96.10;;;;;;5005286;28;19910;-46
2022/06/15 13:39:24;;;;;;;;;;;25.70;96.00;;;;;;4997426;28;24091;-52
2022/06/15 13:42:10;;;;;;;;;;;25.70;95.90;;;;;;4994091;28;19960;-48
2022/06/15 13:44:52;;;;;;;;;;;25.70;95.70;;;;;;4993505;28;24062;-45
2022/06/15 13:47:20;;;;;;;;;;;25.70;95.60;;;;;;4990297;28;19998;-49
2022/06/15 13:49:48;;;;;;;;;;;25.70;95.50;;;;;;5005535;28;19940;-48
2022/06/15 13:52:18;;;;;;;;;;;25.70;95.50;;;;;;5005504;28;19910;-47
2022/06/15 13:55:00;;;;;;;;;;;25.70;95.40;;;;;;5005920;28;19925;-52
2022/06/15 13:57:44;;;;;;;;;;;25.70;95.30;;;;;;5005762;28;20139;-49
2022/06/15 14:00:19;;;;;;;;;;;25.80;95.30;;;;;;4997762;28;19902;-49
2022/06/15 14:03:01;;;;;;;;;;;25.80;95.30;;;;;;4985536;28;20194;-48
2022/06/15 14:05:33;;;;;;;;;;;25.80;95.30;;;;;;4987348;28;19937;-47
2022/06/15 14:07:59;;;;;;;;;;;25.80;95.20;;;;;;4986066;28;19964;-52
2022/06/15 14:10:32;;;;;;;;;;;25.80;95.20;;;;;;4985739;28;19949;-47
2022/06/15 14:13:14;;;;;;;;;;;25.80;95.20;;;;;;4985903;28;19912;-49
2022/06/15 14:15:42;;;;;;;;;;;25.90;95.10;;;;;;4985914;28;19941;-49
2022/06/15 14:18:27;;;;;;;;;;;25.90;95.00;;;;;;5003952;28;19952;-50
2022/06/15 14:20:53;;;;;;;;;;;25.90;95.00;;;;;;5004684;28;19917;-47
2022/06/15 14:23:30;;;;;;;;;;;25.90;94.80;;;;;;5005418;28;20106;-48
2022/06/15 14:25:57;;;;;;;;;;;25.90;94.90;;;;;;5004541;28;19909;-51
2022/06/15 14:28:25;;;;;;;;;;;26.00;95.00;;;;;;5004369;28;20017;-51
2022/06/15 14:31:01;;;;;;;;;;;26.00;95.00;;;;;;5004900;28;20141;-51
2022/06/15 14:33:29;;;;;;;;;;;26.00;94.90;;;;;;5004859;28;19905;-45
2022/06/15 14:35:59;;;;;;;;;;;26.00;94.90;;;;;;5004538;28;19905;-52
2022/06/15 14:38:26;;;;;;;;;;;26.00;95.00;;;;;;5004818;28;19905;-47
2022/06/15 14:40:54;;;;;;;;;;;26.10;95.10;;;;;;5005283;28;19910;-46
2022/06/15 14:43:21;;;;;;;;;;;26.10;95.40;;;;;;5005261;28;19905;-57
2022/06/15 14:45:55;;;;;;;14.27;2.47;;;26.20;94.80;;;;;;5005198;28;20236;-54
2022/06/15 14:48:26;;;;;;;9.50;2.40;;;26.20;94.60;;;;;;4992780;28;20030;-49
2022/06/15 14:51:18;;;;;;;9.30;2.43;;;26.30;94.50;;;;;;4983789;28;20042;-52